createdAt,value
2017-08-30T00:00:19.743Z,1010.87
2017-08-30T00:01:19.779Z,1010.83
2017-08-30T00:02:19.811Z,1010.86
2017-08-30T00:03:19.844Z,1010.83
2017-08-30T00:04:19.883Z,1010.81
2017-08-30T00:05:20.277Z,1010.8
2017-08-30T00:06:20.308Z,1010.77
2017-08-30T00:07:20.339Z,1010.76
2017-08-30T00:08:20.378Z,1010.78
2017-08-30T00:09:20.405Z,1010.81
2017-08-30T00:10:20.442Z,1010.75
2017-08-30T00:11:20.482Z,1010.84
2017-08-30T00:12:20.511Z,1010.79
2017-08-30T00:13:20.550Z,1010.8
2017-08-30T00:14:20.637Z,1010.8
2017-08-30T00:15:20.672Z,1010.77
2017-08-30T00:16:20.704Z,1010.71
2017-08-30T00:17:20.737Z,1010.74
2017-08-30T00:18:20.778Z,1010.75
2017-08-30T00:19:21.212Z,1010.74
2017-08-30T00:20:21.246Z,1010.78
2017-08-30T00:21:21.281Z,1010.71
2017-08-30T00:22:21.313Z,1010.65
2017-08-30T00:23:21.349Z,1010.68
2017-08-30T00:24:21.383Z,1010.69
2017-08-30T00:25:21.414Z,1010.69
2017-08-30T00:26:21.452Z,1010.63
2017-08-30T00:27:21.488Z,1010.72
2017-08-30T00:28:21.516Z,1010.65
2017-08-30T00:29:21.553Z,1010.64
2017-08-30T00:30:21.592Z,1010.6
2017-08-30T00:31:21.622Z,1010.65
2017-08-30T00:32:21.652Z,1010.61
2017-08-30T00:33:21.691Z,1010.65
2017-08-30T00:34:21.725Z,1010.67
2017-08-30T00:35:21.756Z,1010.65
2017-08-30T00:36:21.791Z,1010.64
2017-08-30T00:37:21.826Z,1010.65
2017-08-30T00:38:21.859Z,1010.63
2017-08-30T00:39:22.269Z,1010.61
2017-08-30T00:40:22.300Z,1010.62
2017-08-30T00:41:22.332Z,1010.6
2017-08-30T00:42:22.368Z,1010.64
2017-08-30T00:43:22.402Z,1010.6
2017-08-30T00:44:22.433Z,1010.64
2017-08-30T00:45:22.466Z,1010.66
2017-08-30T00:46:22.542Z,1010.62
2017-08-30T00:47:22.581Z,1010.61
2017-08-30T00:48:22.609Z,1010.58
2017-08-30T00:49:23.007Z,1010.6
2017-08-30T00:50:23.040Z,1010.58
2017-08-30T00:51:23.073Z,1010.56
2017-08-30T00:52:23.109Z,1010.59
2017-08-30T00:53:23.533Z,1010.58
2017-08-30T00:54:23.562Z,1010.56
2017-08-30T00:55:23.601Z,1010.58
2017-08-30T00:56:23.633Z,1010.58
2017-08-30T00:57:23.665Z,1010.57
2017-08-30T00:58:23.704Z,1010.55
2017-08-30T00:59:23.736Z,1010.53
2017-08-30T01:00:23.766Z,1010.54
2017-08-30T01:01:23.802Z,1010.51
2017-08-30T01:02:23.836Z,1010.48
2017-08-30T01:03:23.873Z,1010.48
2017-08-30T01:04:23.905Z,1010.51
2017-08-30T01:05:23.937Z,1010.49
2017-08-30T01:06:23.972Z,1010.5
2017-08-30T01:07:24.009Z,1010.47
2017-08-30T01:08:24.037Z,1010.48
2017-08-30T01:09:24.075Z,1010.52
2017-08-30T01:10:24.108Z,1010.46
2017-08-30T01:11:24.142Z,1010.48
2017-08-30T01:12:24.173Z,1010.41
2017-08-30T01:13:24.208Z,1010.42
2017-08-30T01:14:24.618Z,1010.46
2017-08-30T01:15:24.653Z,1010.41
2017-08-30T01:16:24.689Z,1010.42
2017-08-30T01:17:24.717Z,1010.45
2017-08-30T01:18:24.753Z,1010.44
2017-08-30T01:19:24.792Z,1010.42
2017-08-30T01:20:24.821Z,1010.38
2017-08-30T01:21:24.856Z,1010.38
2017-08-30T01:22:24.891Z,1010.38
2017-08-30T01:23:24.924Z,1010.42
2017-08-30T01:24:24.956Z,1010.39
2017-08-30T01:25:24.992Z,1010.44
2017-08-30T01:26:25.026Z,1010.36
2017-08-30T01:27:25.059Z,1010.39
2017-08-30T01:28:25.175Z,1010.4
2017-08-30T01:29:25.209Z,1010.43
2017-08-30T01:30:25.237Z,1010.36
2017-08-30T01:31:25.309Z,1010.38
2017-08-30T01:32:25.341Z,1010.38
2017-08-30T01:33:25.377Z,1010.37
2017-08-30T01:34:25.414Z,1010.33
2017-08-30T01:35:25.442Z,1010.34
2017-08-30T01:36:25.473Z,1010.28
2017-08-30T01:37:25.514Z,1010.24
2017-08-30T01:38:25.631Z,1010.27
2017-08-30T01:39:25.666Z,1010.25
2017-08-30T01:40:25.701Z,1010.29
2017-08-30T01:41:25.734Z,1010.27
2017-08-30T01:42:25.770Z,1010.25
2017-08-30T01:43:25.800Z,1010.24
2017-08-30T01:44:25.834Z,1010.26
2017-08-30T01:45:26.245Z,1010.22
2017-08-30T01:46:26.278Z,1010.19
2017-08-30T01:47:26.314Z,1010.23
2017-08-30T01:48:26.345Z,1010.23
2017-08-30T01:49:26.750Z,1010.27
2017-08-30T01:50:26.779Z,1010.23
2017-08-30T01:51:26.814Z,1010.26
2017-08-30T01:52:26.849Z,1010.24
2017-08-30T01:53:26.880Z,1010.23
2017-08-30T01:54:26.918Z,1010.16
2017-08-30T01:55:26.947Z,1010.24
2017-08-30T01:56:26.983Z,1010.19
2017-08-30T01:57:27.019Z,1010.2
2017-08-30T01:58:27.048Z,1010.16
2017-08-30T01:59:27.444Z,1010.19
2017-08-30T02:00:27.479Z,1010.19
2017-08-30T02:01:27.533Z,1010.13
2017-08-30T02:02:27.555Z,1010.14
2017-08-30T02:03:27.740Z,1010.17
2017-08-30T02:04:28.202Z,1010.14
2017-08-30T02:05:28.231Z,1010.12
2017-08-30T02:06:28.318Z,1010.12
2017-08-30T02:07:28.304Z,1010.14
2017-08-30T02:08:28.334Z,1010.14
2017-08-30T02:09:28.365Z,1010.11
2017-08-30T02:10:28.403Z,1010.16
2017-08-30T02:11:28.435Z,1010.11
2017-08-30T02:12:28.466Z,1010.12
2017-08-30T02:13:28.505Z,1010.1
2017-08-30T02:14:28.536Z,1010.11
2017-08-30T02:15:28.570Z,1010.08
2017-08-30T02:16:28.603Z,1010.07
2017-08-30T02:17:28.638Z,1010.11
2017-08-30T02:18:28.670Z,1010.08
2017-08-30T02:19:28.705Z,1010.1
2017-08-30T02:20:28.736Z,1010.13
2017-08-30T02:21:28.772Z,1010.14
2017-08-30T02:22:28.806Z,1010.08
2017-08-30T02:23:28.837Z,1010.12
2017-08-30T02:24:28.872Z,1010.12
2017-08-30T02:25:28.906Z,1010.1
2017-08-30T02:26:29.327Z,1010.11
2017-08-30T02:27:29.363Z,1010.1
2017-08-30T02:28:29.792Z,1010.11
2017-08-30T02:29:30.195Z,1010.05
2017-08-30T02:30:30.230Z,1010.07
2017-08-30T02:31:30.264Z,1010.08
2017-08-30T02:32:30.296Z,1010.07
2017-08-30T02:33:30.329Z,1010.03
2017-08-30T02:34:30.364Z,1010.01
2017-08-30T02:35:30.400Z,1010
2017-08-30T02:36:30.433Z,1010.07
2017-08-30T02:37:30.465Z,1010.02
2017-08-30T02:38:30.865Z,1009.98
2017-08-30T02:39:30.969Z,1009.96
2017-08-30T02:40:31.006Z,1009.95
2017-08-30T02:41:31.428Z,1009.97
2017-08-30T02:42:31.463Z,1009.93
2017-08-30T02:43:31.497Z,1009.94
2017-08-30T02:44:31.529Z,1009.93
2017-08-30T02:45:31.562Z,1009.91
2017-08-30T02:46:31.594Z,1009.89
2017-08-30T02:47:31.631Z,1009.86
2017-08-30T02:48:31.731Z,1009.87
2017-08-30T02:49:31.763Z,1009.88
2017-08-30T02:50:32.145Z,1009.89
2017-08-30T02:51:32.178Z,1009.85
2017-08-30T02:52:32.210Z,1009.85
2017-08-30T02:53:32.312Z,1009.87
2017-08-30T02:54:32.340Z,1009.8
2017-08-30T02:55:32.378Z,1009.85
2017-08-30T02:56:32.411Z,1009.81
2017-08-30T02:57:32.447Z,1009.78
2017-08-30T02:58:32.476Z,1009.81
2017-08-30T02:59:32.513Z,1009.79
2017-08-30T03:00:32.540Z,1009.84
2017-08-30T03:01:32.578Z,1009.82
2017-08-30T03:02:32.604Z,1009.84
2017-08-30T03:03:32.644Z,1009.86
2017-08-30T03:04:32.672Z,1009.87
2017-08-30T03:05:32.707Z,1009.86
2017-08-30T03:06:33.115Z,1009.92
2017-08-30T03:07:33.543Z,1009.92
2017-08-30T03:08:33.574Z,1009.94
2017-08-30T03:09:33.613Z,1009.94
2017-08-30T03:10:33.640Z,1009.96
2017-08-30T03:11:33.675Z,1010.02
2017-08-30T03:12:33.708Z,1010
2017-08-30T03:13:33.743Z,1009.97
2017-08-30T03:14:33.776Z,1010.01
2017-08-30T03:15:33.809Z,1010.01
2017-08-30T03:16:33.844Z,1009.97
2017-08-30T03:17:33.876Z,1009.97
2017-08-30T03:18:34.255Z,1009.98
2017-08-30T03:19:34.295Z,1009.98
2017-08-30T03:20:34.326Z,1009.97
2017-08-30T03:21:34.358Z,1010.02
2017-08-30T03:22:34.392Z,1010
2017-08-30T03:23:34.432Z,1010.01
2017-08-30T03:24:34.467Z,1010.04
2017-08-30T03:25:34.495Z,1010
2017-08-30T03:26:34.533Z,1009.99
2017-08-30T03:27:34.560Z,1010.03
2017-08-30T03:28:34.594Z,1009.99
2017-08-30T03:29:34.628Z,1009.99
2017-08-30T03:30:34.659Z,1010.01
2017-08-30T03:31:34.695Z,1010
2017-08-30T03:32:34.727Z,1009.98
2017-08-30T03:33:34.759Z,1009.98
2017-08-30T03:34:34.793Z,1009.97
2017-08-30T03:35:35.205Z,1009.96
2017-08-30T03:36:35.238Z,1009.95
2017-08-30T03:37:35.268Z,1009.96
2017-08-30T03:38:35.301Z,1009.97
2017-08-30T03:39:35.338Z,1010
2017-08-30T03:40:35.750Z,1009.99
2017-08-30T03:41:35.777Z,1009.98
2017-08-30T03:42:35.808Z,1009.99
2017-08-30T03:43:35.848Z,1009.96
2017-08-30T03:44:35.880Z,1009.96
2017-08-30T03:45:35.907Z,1009.96
2017-08-30T03:46:35.946Z,1009.93
2017-08-30T03:47:35.977Z,1009.95
2017-08-30T03:48:36.360Z,1009.92
2017-08-30T03:49:36.392Z,1009.94
2017-08-30T03:50:36.428Z,1009.88
2017-08-30T03:51:36.461Z,1009.89
2017-08-30T03:52:36.491Z,1009.91
2017-08-30T03:53:36.527Z,1009.88
2017-08-30T03:54:36.557Z,1009.87
2017-08-30T03:55:36.592Z,1009.9
2017-08-30T03:56:36.625Z,1009.9
2017-08-30T03:57:36.658Z,1009.92
2017-08-30T03:58:36.694Z,1009.9
2017-08-30T03:59:36.725Z,1009.92
2017-08-30T04:00:36.757Z,1009.91
2017-08-30T04:01:36.791Z,1009.97
2017-08-30T04:02:37.179Z,1009.93
2017-08-30T04:03:37.208Z,1009.93
2017-08-30T04:04:37.247Z,1009.97
2017-08-30T04:05:37.274Z,1009.9
2017-08-30T04:06:37.308Z,1009.94
2017-08-30T04:07:37.380Z,1009.98
2017-08-30T04:08:37.413Z,1010
2017-08-30T04:09:37.516Z,1009.96
2017-08-30T04:10:37.550Z,1009.93
2017-08-30T04:11:37.966Z,1009.93
2017-08-30T04:12:37.998Z,1009.89
2017-08-30T04:13:38.037Z,1009.92
2017-08-30T04:14:38.074Z,1009.84
2017-08-30T04:15:38.097Z,1009.86
2017-08-30T04:16:38.135Z,1009.84
2017-08-30T04:17:38.166Z,1009.85
2017-08-30T04:18:38.198Z,1009.82
2017-08-30T04:19:38.232Z,1009.81
2017-08-30T04:20:38.263Z,1009.83
2017-08-30T04:21:38.298Z,1009.82
2017-08-30T04:22:38.336Z,1009.85
2017-08-30T04:23:38.360Z,1009.88
2017-08-30T04:24:38.761Z,1009.85
2017-08-30T04:25:38.795Z,1009.91
2017-08-30T04:26:38.832Z,1009.94
2017-08-30T04:27:38.860Z,1009.95
2017-08-30T04:28:38.893Z,1009.97
2017-08-30T04:29:38.931Z,1009.98
2017-08-30T04:30:38.962Z,1009.94
2017-08-30T04:31:39.017Z,1009.98
2017-08-30T04:32:39.400Z,1010.01
2017-08-30T04:33:39.810Z,1009.95
2017-08-30T04:34:40.274Z,1010.01
2017-08-30T04:35:40.309Z,1010
2017-08-30T04:36:40.749Z,1010
2017-08-30T04:37:41.162Z,1010.09
2017-08-30T04:38:41.192Z,1010.07
2017-08-30T04:39:41.230Z,1010.04
2017-08-30T04:40:41.263Z,1010.06
2017-08-30T04:41:41.293Z,1010.06
2017-08-30T04:42:41.327Z,1010.1
2017-08-30T04:43:41.358Z,1010.08
2017-08-30T04:44:41.394Z,1010.08
2017-08-30T04:45:41.426Z,1010.08
2017-08-30T04:46:41.457Z,1010.07
2017-08-30T04:47:41.493Z,1010.02
2017-08-30T04:48:41.532Z,1010.03
2017-08-30T04:49:41.558Z,1010.04
2017-08-30T04:50:41.592Z,1010.03
2017-08-30T04:51:41.625Z,1009.98
2017-08-30T04:52:41.663Z,1010
2017-08-30T04:53:42.067Z,1010.01
2017-08-30T04:54:42.470Z,1010.02
2017-08-30T04:55:42.506Z,1010
2017-08-30T04:56:42.542Z,1010
2017-08-30T04:57:42.569Z,1010.01
2017-08-30T04:58:42.951Z,1010.04
2017-08-30T04:59:42.981Z,1010.03
2017-08-30T05:00:43.016Z,1010.03
2017-08-30T05:01:43.052Z,1010.01
2017-08-30T05:02:43.082Z,1010.06
2017-08-30T05:03:43.114Z,1010.04
2017-08-30T05:04:43.150Z,1010.04
2017-08-30T05:05:43.184Z,1010.07
2017-08-30T05:06:43.212Z,1010.05
2017-08-30T05:07:43.324Z,1010.05
2017-08-30T05:08:43.343Z,1010.09
2017-08-30T05:09:43.372Z,1010.07
2017-08-30T05:10:43.452Z,1010.1
2017-08-30T05:11:43.486Z,1010.1
2017-08-30T05:12:43.520Z,1010.08
2017-08-30T05:13:43.556Z,1010.11
2017-08-30T05:14:43.584Z,1010.1
2017-08-30T05:15:43.969Z,1010.08
2017-08-30T05:16:44.004Z,1010.08
2017-08-30T05:17:44.034Z,1010.15
2017-08-30T05:18:44.066Z,1010.11
2017-08-30T05:19:44.102Z,1010.11
2017-08-30T05:20:44.137Z,1010.1
2017-08-30T05:21:44.164Z,1010.11
2017-08-30T05:22:44.200Z,1010.08
2017-08-30T05:23:44.257Z,1010.08
2017-08-30T05:24:44.686Z,1010.06
2017-08-30T05:25:44.716Z,1010.1
2017-08-30T05:26:44.823Z,1010.11
2017-08-30T05:27:45.259Z,1010.12
2017-08-30T05:28:45.286Z,1010.15
2017-08-30T05:29:45.700Z,1010.1
2017-08-30T05:30:45.732Z,1010.11
2017-08-30T05:31:45.762Z,1010.13
2017-08-30T05:32:45.795Z,1010.12
2017-08-30T05:33:45.834Z,1010.14
2017-08-30T05:34:45.863Z,1010.18
2017-08-30T05:35:45.963Z,1010.18
2017-08-30T05:36:46.394Z,1010.21
2017-08-30T05:37:46.426Z,1010.24
2017-08-30T05:38:46.465Z,1010.23
2017-08-30T05:39:46.495Z,1010.21
2017-08-30T05:40:46.528Z,1010.23
2017-08-30T05:41:46.563Z,1010.26
2017-08-30T05:42:46.600Z,1010.25
2017-08-30T05:43:46.632Z,1010.26
2017-08-30T05:44:46.665Z,1010.23
2017-08-30T05:45:46.703Z,1010.2
2017-08-30T05:46:47.122Z,1010.16
2017-08-30T05:47:47.593Z,1010.17
2017-08-30T05:48:47.624Z,1010.13
2017-08-30T05:49:47.663Z,1010.17
2017-08-30T05:50:47.776Z,1010.19
2017-08-30T05:51:47.807Z,1010.16
2017-08-30T05:52:47.904Z,1010.18
2017-08-30T05:53:47.936Z,1010.18
2017-08-30T05:54:48.035Z,1010.15
2017-08-30T05:55:48.010Z,1010.13
2017-08-30T05:56:48.042Z,1010.09
2017-08-30T05:57:48.140Z,1010.15
2017-08-30T05:58:48.172Z,1010.17
2017-08-30T05:59:48.206Z,1010.15
2017-08-30T06:00:48.589Z,1010.23
2017-08-30T06:01:48.981Z,1010.22
2017-08-30T06:02:49.144Z,1010.24
2017-08-30T06:03:49.174Z,1010.28
2017-08-30T06:04:49.208Z,1010.25
2017-08-30T06:05:49.243Z,1010.27
2017-08-30T06:06:49.648Z,1010.24
2017-08-30T06:07:50.140Z,1010.3
2017-08-30T06:08:50.176Z,1010.3
2017-08-30T06:09:50.208Z,1010.3
2017-08-30T06:10:50.244Z,1010.29
2017-08-30T06:11:50.281Z,1010.27
2017-08-30T06:12:50.318Z,1010.32
2017-08-30T06:13:50.352Z,1010.3
2017-08-30T06:14:50.392Z,1010.27
2017-08-30T06:15:50.433Z,1010.27
2017-08-30T06:16:50.865Z,1010.22
2017-08-30T06:17:51.283Z,1010.31
2017-08-30T06:18:51.670Z,1010.38
2017-08-30T06:19:52.062Z,1010.34
2017-08-30T06:20:52.093Z,1010.32
2017-08-30T06:21:52.129Z,1010.37
2017-08-30T06:22:52.175Z,1010.3
2017-08-30T06:23:52.209Z,1010.34
2017-08-30T06:24:52.242Z,1010.43
2017-08-30T06:25:52.285Z,1010.42
2017-08-30T06:26:52.324Z,1010.48
2017-08-30T06:27:52.367Z,1010.37
2017-08-30T06:28:52.396Z,1010.31
2017-08-30T06:29:52.447Z,1010.35
2017-08-30T06:30:52.827Z,1010.44
2017-08-30T06:31:52.868Z,1010.51
2017-08-30T06:32:52.944Z,1010.45
2017-08-30T06:33:52.988Z,1010.62
2017-08-30T06:34:53.025Z,1010.93
2017-08-30T06:35:53.065Z,1011.37
2017-08-30T06:36:53.101Z,1011.9
2017-08-30T06:37:53.516Z,1012.34
2017-08-30T06:38:53.707Z,1012.37
2017-08-30T06:39:53.760Z,1012.19
2017-08-30T06:40:53.785Z,1012.08
2017-08-30T06:41:53.819Z,1011.92
2017-08-30T06:42:53.866Z,1011.79
2017-08-30T06:43:53.902Z,1011.62
2017-08-30T06:44:53.941Z,1011.55
2017-08-30T06:45:53.981Z,1011.46
2017-08-30T06:46:54.020Z,1011.35
2017-08-30T06:47:54.059Z,1011.3
2017-08-30T06:48:54.098Z,1011.17
2017-08-30T06:49:54.528Z,1011.11
2017-08-30T06:50:54.570Z,1011.13
2017-08-30T06:51:55.034Z,1011.06
2017-08-30T06:52:55.071Z,1011.13
2017-08-30T06:53:55.482Z,1011.12
2017-08-30T06:54:55.560Z,1010.97
2017-08-30T06:55:55.597Z,1010.94
2017-08-30T06:56:55.638Z,1010.92
2017-08-30T06:57:56.110Z,1010.87
2017-08-30T06:58:56.150Z,1010.88
2017-08-30T06:59:56.584Z,1010.81
2017-08-30T07:00:56.622Z,1010.79
2017-08-30T07:01:56.662Z,1010.8
2017-08-30T07:02:56.702Z,1010.8
2017-08-30T07:03:56.743Z,1010.74
2017-08-30T07:04:56.788Z,1010.69
2017-08-30T07:05:56.826Z,1010.72
2017-08-30T07:06:56.869Z,1010.68
2017-08-30T07:07:56.929Z,1010.71
2017-08-30T07:08:56.946Z,1010.66
2017-08-30T07:09:56.991Z,1010.68
2017-08-30T07:10:57.027Z,1010.65
2017-08-30T07:11:57.070Z,1010.56
2017-08-30T07:12:57.480Z,1010.59
2017-08-30T07:13:57.899Z,1010.51
2017-08-30T07:14:57.937Z,1010.47
2017-08-30T07:15:58.344Z,1010.44
2017-08-30T07:16:58.434Z,1010.44
2017-08-30T07:17:58.478Z,1010.38
2017-08-30T07:18:58.584Z,1010.32
2017-08-30T07:19:58.621Z,1010.25
2017-08-30T07:20:58.660Z,1010.25
2017-08-30T07:21:58.703Z,1010.25
2017-08-30T07:22:58.747Z,1010.19
2017-08-30T07:23:59.171Z,1010.12
2017-08-30T07:24:59.209Z,1010.13
2017-08-30T07:25:59.250Z,1010.16
2017-08-30T07:26:59.294Z,1010.14
2017-08-30T07:27:59.748Z,1010.11
2017-08-30T07:28:59.791Z,1010.09
2017-08-30T07:29:59.832Z,1010.04
2017-08-30T07:30:59.875Z,1010.05
2017-08-30T07:31:59.913Z,1010
2017-08-30T07:32:59.958Z,1010.01
2017-08-30T07:33:59.998Z,1009.94
2017-08-30T07:35:00.041Z,1009.93
2017-08-30T07:36:00.084Z,1009.9
2017-08-30T07:37:00.122Z,1009.89
2017-08-30T07:38:00.165Z,1009.84
2017-08-30T07:39:00.574Z,1009.82
2017-08-30T07:40:00.614Z,1009.81
2017-08-30T07:41:01.031Z,1009.8
2017-08-30T07:42:01.074Z,1009.76
2017-08-30T07:43:01.505Z,1009.75
2017-08-30T07:44:01.544Z,1009.78
2017-08-30T07:45:01.588Z,1009.77
2017-08-30T07:46:01.640Z,1009.73
2017-08-30T07:47:01.669Z,1009.71
2017-08-30T07:48:01.724Z,1009.74
2017-08-30T07:49:01.762Z,1009.74
2017-08-30T07:50:01.799Z,1009.71
2017-08-30T07:51:01.845Z,1009.73
2017-08-30T07:52:01.888Z,1009.65
2017-08-30T07:53:01.934Z,1009.62
2017-08-30T07:54:02.009Z,1009.6
2017-08-30T07:55:02.055Z,1009.6
2017-08-30T07:56:02.123Z,1009.6
2017-08-30T07:57:02.585Z,1009.62
2017-08-30T07:58:03.002Z,1009.58
2017-08-30T07:59:03.047Z,1009.59
2017-08-30T08:00:03.600Z,1009.6
2017-08-30T08:01:03.125Z,1009.63
2017-08-30T08:02:03.219Z,1009.64
2017-08-30T08:03:03.266Z,1009.68
2017-08-30T08:04:03.310Z,1009.71
2017-08-30T08:05:03.350Z,1009.66
2017-08-30T08:06:03.400Z,1009.67
2017-08-30T08:07:03.815Z,1009.66
2017-08-30T08:08:04.357Z,1009.69
2017-08-30T08:09:04.388Z,1009.66
2017-08-30T08:10:04.702Z,1009.66
2017-08-30T08:11:04.439Z,1009.66
2017-08-30T08:12:04.865Z,1009.74
2017-08-30T08:13:04.911Z,1009.69
2017-08-30T08:14:04.952Z,1009.79
2017-08-30T08:15:05.416Z,1009.71
2017-08-30T08:16:05.460Z,1009.72
2017-08-30T08:17:05.505Z,1009.68
2017-08-30T08:18:05.548Z,1009.71
2017-08-30T08:19:05.593Z,1009.79
2017-08-30T08:20:05.639Z,1009.84
2017-08-30T08:21:05.683Z,1009.86
2017-08-30T08:22:06.080Z,1009.84
2017-08-30T08:23:06.122Z,1009.8
2017-08-30T08:24:06.231Z,1009.81
2017-08-30T08:25:06.348Z,1009.79
2017-08-30T08:26:06.398Z,1009.77
2017-08-30T08:27:06.440Z,1009.84
2017-08-30T08:28:06.540Z,1009.84
2017-08-30T08:29:06.907Z,1009.82
2017-08-30T08:30:06.954Z,1009.86
2017-08-30T08:31:07.000Z,1009.85
2017-08-30T08:32:07.422Z,1009.87
2017-08-30T08:33:07.469Z,1009.93
2017-08-30T08:34:07.578Z,1009.91
2017-08-30T08:35:07.620Z,1009.88
2017-08-30T08:36:07.666Z,1009.92
2017-08-30T08:37:07.719Z,1009.93
2017-08-30T08:38:07.757Z,1009.96
2017-08-30T08:39:07.875Z,1009.98
2017-08-30T08:40:07.935Z,1010.09
2017-08-30T08:41:07.983Z,1010.14
2017-08-30T08:42:08.027Z,1010.18
2017-08-30T08:43:08.131Z,1010.17
2017-08-30T08:44:08.179Z,1010.12
2017-08-30T08:45:08.224Z,1010.04
2017-08-30T08:46:08.272Z,1010.04
2017-08-30T08:47:08.319Z,1010.19
2017-08-30T08:48:08.364Z,1010.21
2017-08-30T08:49:08.814Z,1010.18
2017-08-30T08:50:08.856Z,1010.09
2017-08-30T08:51:08.903Z,1010.14
2017-08-30T08:52:09.337Z,1010.16
2017-08-30T08:53:09.753Z,1010.18
2017-08-30T08:54:09.804Z,1010.21
2017-08-30T08:55:09.908Z,1010.14
2017-08-30T08:56:09.952Z,1010.09
2017-08-30T08:57:09.999Z,1010.07
2017-08-30T08:58:10.044Z,1009.99
2017-08-30T08:59:10.497Z,1009.92
2017-08-30T09:00:10.543Z,1009.88
2017-08-30T09:01:10.591Z,1009.9
2017-08-30T09:02:10.641Z,1009.88
2017-08-30T09:03:10.685Z,1009.87
2017-08-30T09:04:10.741Z,1009.96
2017-08-30T09:05:10.855Z,1009.88
2017-08-30T09:06:11.301Z,1009.93
2017-08-30T09:07:11.742Z,1009.84
2017-08-30T09:08:11.786Z,1009.84
2017-08-30T09:09:11.842Z,1009.79
2017-08-30T09:10:12.256Z,1009.82
2017-08-30T09:11:12.386Z,1009.86
2017-08-30T09:12:12.436Z,1009.82
2017-08-30T09:13:12.548Z,1009.85
2017-08-30T09:14:12.594Z,1009.87
2017-08-30T09:15:12.644Z,1009.94
2017-08-30T09:16:12.752Z,1009.92
2017-08-30T09:17:12.803Z,1009.92
2017-08-30T09:18:12.854Z,1009.94
2017-08-30T09:19:12.904Z,1009.99
2017-08-30T09:20:12.950Z,1009.99
2017-08-30T09:21:13.383Z,1010.05
2017-08-30T09:22:13.434Z,1010.07
2017-08-30T09:23:13.478Z,1009.99
2017-08-30T09:24:13.534Z,1010.03
2017-08-30T09:25:13.969Z,1010.01
2017-08-30T09:26:14.397Z,1010
2017-08-30T09:27:14.445Z,1010.01
2017-08-30T09:28:14.492Z,1009.98
2017-08-30T09:29:14.544Z,1009.95
2017-08-30T09:30:14.589Z,1009.93
2017-08-30T09:31:14.641Z,1009.95
2017-08-30T09:32:14.683Z,1010.01
2017-08-30T09:33:14.741Z,1009.97
2017-08-30T09:34:14.784Z,1010.05
2017-08-30T09:35:14.835Z,1010.04
2017-08-30T09:36:14.885Z,1010.08
2017-08-30T09:37:14.937Z,1010.05
2017-08-30T09:38:14.985Z,1010.1
2017-08-30T09:39:15.034Z,1010.03
2017-08-30T09:40:15.086Z,1010.08
2017-08-30T09:41:15.134Z,1010.09
2017-08-30T09:42:15.179Z,1010.04
2017-08-30T09:43:15.291Z,1010.08
2017-08-30T09:44:15.343Z,1010.03
2017-08-30T09:45:15.389Z,1009.97
2017-08-30T09:46:15.815Z,1010.03
2017-08-30T09:47:16.233Z,1009.99
2017-08-30T09:48:16.282Z,1010.04
2017-08-30T09:49:16.331Z,1009.95
2017-08-30T09:50:16.384Z,1009.94
2017-08-30T09:51:16.435Z,1009.94
2017-08-30T09:52:16.482Z,1009.87
2017-08-30T09:53:16.534Z,1009.84
2017-08-30T09:54:16.583Z,1009.91
2017-08-30T09:55:17.006Z,1009.92
2017-08-30T09:56:17.053Z,1009.91
2017-08-30T09:57:17.097Z,1009.97
2017-08-30T09:58:17.152Z,1010.01
2017-08-30T09:59:17.198Z,1010
2017-08-30T10:00:17.325Z,1009.99
2017-08-30T10:01:17.378Z,1010.01
2017-08-30T10:02:17.428Z,1010.03
2017-08-30T10:03:17.859Z,1010.04
2017-08-30T10:04:18.291Z,1010.05
2017-08-30T10:05:18.342Z,1010.02
2017-08-30T10:06:18.770Z,1010.02
2017-08-30T10:07:18.815Z,1010.04
2017-08-30T10:08:18.864Z,1010.03
2017-08-30T10:09:18.911Z,1010.07
2017-08-30T10:10:18.963Z,1010.06
2017-08-30T10:11:19.009Z,1010.12
2017-08-30T10:12:19.060Z,1010.18
2017-08-30T10:13:19.487Z,1010.16
2017-08-30T10:14:19.536Z,1010.21
2017-08-30T10:15:19.583Z,1010.21
2017-08-30T10:16:19.632Z,1010.23
2017-08-30T10:17:20.057Z,1010.22
2017-08-30T10:18:20.103Z,1010.27
2017-08-30T10:19:20.152Z,1010.27
2017-08-30T10:20:20.200Z,1010.33
2017-08-30T10:21:20.245Z,1010.37
2017-08-30T10:22:20.293Z,1010.4
2017-08-30T10:23:20.382Z,1010.41
2017-08-30T10:24:20.822Z,1010.38
2017-08-30T10:25:20.881Z,1010.51
2017-08-30T10:26:20.920Z,1010.49
2017-08-30T10:27:20.964Z,1010.57
2017-08-30T10:28:21.012Z,1010.61
2017-08-30T10:29:21.059Z,1010.63
2017-08-30T10:30:21.162Z,1010.66
2017-08-30T10:31:21.209Z,1010.87
2017-08-30T10:32:21.590Z,1011.07
2017-08-30T10:33:22.003Z,1011.1
2017-08-30T10:34:22.050Z,1011.3
2017-08-30T10:35:22.094Z,1011.49
2017-08-30T10:36:22.403Z,1011.61
2017-08-30T10:37:22.188Z,1011.75
2017-08-30T10:38:22.602Z,1011.93
2017-08-30T10:39:22.650Z,1012.21
2017-08-30T10:40:22.694Z,1012.36
2017-08-30T10:41:22.735Z,1012.87
2017-08-30T10:42:22.778Z,1012.98
2017-08-30T10:43:22.825Z,1013.44
2017-08-30T10:44:22.869Z,1013.97
2017-08-30T10:45:22.915Z,1013.9
2017-08-30T10:46:22.960Z,1014.27
2017-08-30T10:47:23.001Z,1014.37
2017-08-30T10:48:23.049Z,1014.31
2017-08-30T10:49:23.152Z,1014.49
2017-08-30T10:50:23.576Z,1014.31
2017-08-30T10:51:23.620Z,1013.94
2017-08-30T10:52:23.664Z,1014.35
2017-08-30T10:53:23.706Z,1014.93
2017-08-30T10:54:24.044Z,1015.01
2017-08-30T10:55:23.796Z,1013.02
2017-08-30T10:56:23.836Z,1009.87
2017-08-30T10:57:23.878Z,1008.99
2017-08-30T10:58:23.923Z,1008.95
2017-08-30T10:59:23.967Z,1009
2017-08-30T11:00:24.008Z,1008.92
2017-08-30T11:01:24.055Z,1008.91
2017-08-30T11:02:24.096Z,1008.83
2017-08-30T11:03:24.140Z,1008.83
2017-08-30T11:04:24.179Z,1008.78
2017-08-30T11:05:24.630Z,1008.78
2017-08-30T11:06:24.729Z,1008.77
2017-08-30T11:07:24.773Z,1008.76
2017-08-30T11:08:24.814Z,1008.77
2017-08-30T11:09:24.953Z,1008.7
2017-08-30T11:10:24.980Z,1008.68
2017-08-30T11:11:25.507Z,1008.67
2017-08-30T11:12:25.912Z,1008.68
2017-08-30T11:13:25.955Z,1008.62
2017-08-30T11:14:25.998Z,1008.66
2017-08-30T11:15:26.038Z,1008.58
2017-08-30T11:16:26.085Z,1008.61
2017-08-30T11:17:26.124Z,1008.58
2017-08-30T11:18:26.169Z,1008.6
2017-08-30T11:19:26.583Z,1008.63
2017-08-30T11:20:26.627Z,1008.61
2017-08-30T11:21:26.671Z,1008.62
2017-08-30T11:22:26.716Z,1008.58
2017-08-30T11:23:26.753Z,1008.55
2017-08-30T11:24:26.792Z,1008.59
2017-08-30T11:25:27.234Z,1008.57
2017-08-30T11:26:27.282Z,1008.56
2017-08-30T11:27:27.318Z,1008.61
2017-08-30T11:28:27.362Z,1008.52
2017-08-30T11:29:27.404Z,1008.57
2017-08-30T11:30:27.445Z,1008.53
2017-08-30T11:31:27.486Z,1008.65
2017-08-30T11:32:27.528Z,1008.56
2017-08-30T11:33:27.575Z,1008.57
2017-08-30T11:34:27.678Z,1008.58
2017-08-30T11:35:27.718Z,1008.5
2017-08-30T11:36:27.764Z,1008.53
2017-08-30T11:37:27.832Z,1008.56
2017-08-30T11:38:28.262Z,1008.5
2017-08-30T11:39:28.383Z,1008.46
2017-08-30T11:40:28.420Z,1008.42
2017-08-30T11:41:28.502Z,1008.43
2017-08-30T11:42:28.540Z,1008.41
2017-08-30T11:43:28.585Z,1008.39
2017-08-30T11:44:28.627Z,1008.38
2017-08-30T11:45:28.669Z,1008.52
2017-08-30T11:46:28.706Z,1008.41
2017-08-30T11:47:28.748Z,1008.35
2017-08-30T11:48:28.790Z,1008.42
2017-08-30T11:49:28.831Z,1008.43
2017-08-30T11:50:28.877Z,1008.46
2017-08-30T11:51:28.915Z,1008.42
2017-08-30T11:52:29.336Z,1008.48
2017-08-30T11:53:29.376Z,1008.47
2017-08-30T11:54:29.820Z,1008.43
2017-08-30T11:55:30.395Z,1008.43
2017-08-30T11:56:30.438Z,1008.47
2017-08-30T11:57:30.478Z,1008.45
2017-08-30T11:58:30.520Z,1008.41
2017-08-30T11:59:30.562Z,1008.39
2017-08-30T12:00:30.600Z,1008.41
2017-08-30T12:01:30.644Z,1008.32
2017-08-30T12:02:30.686Z,1008.35
2017-08-30T12:03:30.725Z,1008.33
2017-08-30T12:04:30.776Z,1008.29
2017-08-30T12:05:30.810Z,1008.33
2017-08-30T12:06:30.849Z,1008.32
2017-08-30T12:07:31.317Z,1008.28
2017-08-30T12:08:31.827Z,1008.29
2017-08-30T12:09:31.869Z,1008.29